This is the latest recevied weather packets stored in our database for station/object KQ4WWD. If no packets are shown the sender has not sent any weather packets the latest 1 day(s).
| Time | Temp. | Humidity | Pressure | Rain* | Wind** | Luminosity | Snow |
|---|---|---|---|---|---|---|---|
| 1778025819 | 26.11° C | 61% | 1014.2 hPa | 0 mm | 0.45 m/s, 112° | 2 W/m² | - |
| 1778025516 | 26.11° C | 61% | 1014.1 hPa | 0 mm | 0.89 m/s, 125° | 5 W/m² | - |
| 1778025213 | 26.67° C | 61% | 1013.9 hPa | 0 mm | 1.79 m/s, 179° | 9 W/m² | - |
| 1778024910 | 26.67° C | 61% | 1014.1 hPa | 0 mm | 0.45 m/s, 63° | 15 W/m² | - |
| 1778024608 | 26.67° C | 60% | 1014.1 hPa | 0 mm | 1.79 m/s, 133° | 22 W/m² | - |
| 1778024316 | 26.67° C | 60% | 1013.8 hPa | 0 mm | 1.34 m/s, 175° | 26 W/m² | - |
| 1778024003 | 27.22° C | 60% | 1013.9 hPa | 0 mm | 1.79 m/s, 116° | 30 W/m² | - |
| 1778023700 | 27.22° C | 59% | 1013.5 hPa | 0 mm | 2.68 m/s, 171° | 38 W/m² | - |
| 1778023397 | 27.22° C | 58% | 1013.8 hPa | 0 mm | 1.79 m/s, 123° | 46 W/m² | - |
| 1778023094 | 27.78° C | 58% | 1013.8 hPa | 0 mm | 3.58 m/s, 102° | 52 W/m² | - |
| 1778022792 | 27.78° C | 58% | 1013.9 hPa | 0 mm | 1.79 m/s, 91° | 63 W/m² | - |
| 1778022490 | 27.78° C | 57% | 1013.8 hPa | 0 mm | 2.68 m/s, 151° | 77 W/m² | - |
| 1778022187 | 28.33° C | 57% | 1013.9 hPa | 0 mm | 1.34 m/s, 149° | 78 W/m² | - |
| 1778021883 | 28.33° C | 57% | 1013.9 hPa | 0 mm | 0.45 m/s, 103° | 97 W/m² | - |
| 1778021580 | 28.33° C | 56% | 1013.8 hPa | 0 mm | 1.79 m/s, 79° | 109 W/m² | - |
| 1778021275 | 28.89° C | 57% | 1013.8 hPa | 0 mm | 3.13 m/s, 102° | 130 W/m² | - |
| 1778020973 | 28.89° C | 54% | 1013.7 hPa | 0 mm | 2.24 m/s, 125° | 142 W/m² | - |
| 1778020671 | 29.44° C | 52% | 1013.7 hPa | 0 mm | 0.89 m/s, 64° | 141 W/m² | - |
| 1778020367 | 30° C | 48% | 1013.8 hPa | 0 mm | 1.34 m/s, 105° | 171 W/m² | - |
| 1778020063 | 31.11° C | 44% | 1013.7 hPa | 0 mm | 1.34 m/s, 90° | 175 W/m² | - |
| 1778019760 | 30.56° C | 45% | 1013.4 hPa | 0 mm | 0.45 m/s, 57° | 209 W/m² | - |
| 1778019456 | 31.11° C | 44% | 1013.7 hPa | 0 mm | 0 m/s | 177 W/m² | - |
| 1778019153 | 30.56° C | 44% | 1013.6 hPa | 0 mm | 0 m/s | 197 W/m² | - |
| 1778018850 | 31.11° C | 43% | 1013.9 hPa | 0 mm | 0.89 m/s, 100° | 225 W/m² | - |
| 1778018547 | 32.22° C | 41% | 1013.7 hPa | 0 mm | 0 m/s | 262 W/m² | - |
* Rain latest hour (hover to see other rain measurements)
** Current wind speed in m/s (hover to see current wind gust speed)